Toledo, Ohio
Current Conditions -  °F | °C
As of 5:53 AM on Friday 31 Oct 2014 (Local Time) from KTDZ Reporting Station
Overcast Overcast  
Wind Chill: 41°   Ceiling: 4300
Heat Index: 44°   Visibility: 10mi
Dew Point: 35°   Wind: 6mph
Humidity: 71%   Direction: 220°SW
Pressure: 29.95"   Gusts: NA
Location:  41.65°N, 83.54°W
Report Text: KTDZ 310953Z AUTO 22005KT 10SM BKN043 BKN055 OVC080 07/02 A2995 RMK AO2 SLP144 T00670017 TSNO
Loading
Personal Weather Stations






























Interactive Weather Map
Tropical Storm Tracking
New forecast layout! Learn more

10-Day Weather Forecast

Advertisements
Track Severe Weather on mobile